createdAt,value
2017-07-15T00:00:33.009Z,1015.73
2017-07-15T00:01:41.647Z,1015.75
2017-07-15T00:02:50.306Z,1015.78
2017-07-15T00:03:59.263Z,1015.8
2017-07-15T00:05:07.938Z,1015.81
2017-07-15T00:06:16.576Z,1015.8
2017-07-15T00:07:25.224Z,1015.81
2017-07-15T00:08:34.524Z,1015.79
2017-07-15T00:09:43.803Z,1015.85
2017-07-15T00:10:52.770Z,1015.84
2017-07-15T00:12:02.356Z,1015.85
2017-07-15T00:13:11.628Z,1015.9
2017-07-15T00:14:21.210Z,1015.93
2017-07-15T00:15:29.883Z,1015.9
2017-07-15T00:16:38.525Z,1015.96
2017-07-15T00:17:47.806Z,1015.98
2017-07-15T00:18:56.767Z,1016
2017-07-15T00:20:05.725Z,1016.01
2017-07-15T00:21:14.680Z,1016.03
2017-07-15T00:22:23.629Z,1016.04
2017-07-15T00:23:32.268Z,1016.01
2017-07-15T00:24:40.919Z,1016.04
2017-07-15T00:25:49.894Z,1016.06
2017-07-15T00:26:59.165Z,1016.07
2017-07-15T00:28:08.435Z,1016.07
2017-07-15T00:29:17.562Z,1016.04
2017-07-15T00:30:26.842Z,1016.04
2017-07-15T00:31:36.459Z,1016.05
2017-07-15T00:32:45.436Z,1016.03
2017-07-15T00:33:54.457Z,1016.01
2017-07-15T00:35:03.116Z,1016.05
2017-07-15T00:36:12.083Z,1016.06
2017-07-15T00:37:21.038Z,1016.02
2017-07-15T00:38:29.996Z,1016.02
2017-07-15T00:39:38.656Z,1016.06
2017-07-15T00:40:47.949Z,1016.03
2017-07-15T00:41:56.914Z,1016.03
2017-07-15T00:43:05.557Z,1016.03
2017-07-15T00:44:14.864Z,1016.05
2017-07-15T00:45:23.817Z,1016.05
2017-07-15T00:46:33.097Z,1016.09
2017-07-15T00:47:41.749Z,1016.05
2017-07-15T00:48:51.343Z,1016.03
2017-07-15T00:50:00.604Z,1016.08
2017-07-15T00:51:09.882Z,1016.08
2017-07-15T00:52:18.841Z,1016.05
2017-07-15T00:53:27.797Z,1016.03
2017-07-15T00:54:37.062Z,1016.03
2017-07-15T00:55:46.657Z,1016.05
2017-07-15T00:56:55.925Z,1016.04
2017-07-15T00:58:05.194Z,1016.08
2017-07-15T00:59:14.150Z,1016.06
2017-07-15T01:00:23.130Z,1016.03
2017-07-15T01:01:32.087Z,1016.06
2017-07-15T01:02:41.061Z,1016.07
2017-07-15T01:03:50.016Z,1016.06
2017-07-15T01:04:58.963Z,1016.08
2017-07-15T01:06:07.608Z,1016.05
2017-07-15T01:07:16.243Z,1016.07
2017-07-15T01:08:25.515Z,1016.06
2017-07-15T01:09:34.780Z,1016.08
2017-07-15T01:10:44.051Z,1016.05
2017-07-15T01:11:53.005Z,1016.06
2017-07-15T01:13:02.933Z,1016.06
2017-07-15T01:14:11.883Z,1016.07
2017-07-15T01:15:21.215Z,1016.1
2017-07-15T01:16:30.171Z,1016.1
2017-07-15T01:17:39.442Z,1016.09
2017-07-15T01:18:48.406Z,1016.13
2017-07-15T01:19:57.067Z,1016.12
2017-07-15T01:21:06.342Z,1016.14
2017-07-15T01:22:15.626Z,1016.11
2017-07-15T01:23:24.648Z,1016.12
2017-07-15T01:24:33.600Z,1016.11
2017-07-15T01:25:42.245Z,1016.1
2017-07-15T01:26:51.208Z,1016.13
2017-07-15T01:28:00.185Z,1016.12
2017-07-15T01:29:09.143Z,1016.11
2017-07-15T01:30:18.425Z,1016.12
2017-07-15T01:31:27.377Z,1016.11
2017-07-15T01:32:36.338Z,1016.09
2017-07-15T01:33:44.979Z,1016.12
2017-07-15T01:34:53.690Z,1016.11
2017-07-15T01:36:02.345Z,1016.16
2017-07-15T01:37:11.303Z,1016.14
2017-07-15T01:38:20.572Z,1016.16
2017-07-15T01:39:29.524Z,1016.17
2017-07-15T01:40:38.805Z,1016.2
2017-07-15T01:41:48.076Z,1016.22
2017-07-15T01:42:57.353Z,1016.2
2017-07-15T01:44:06.941Z,1016.18
2017-07-15T01:45:15.575Z,1016.18
2017-07-15T01:46:24.530Z,1016.19
2017-07-15T01:47:33.177Z,1016.23
2017-07-15T01:48:42.136Z,1016.22
2017-07-15T01:49:50.768Z,1016.24
2017-07-15T01:51:00.357Z,1016.19
2017-07-15T01:52:09.627Z,1016.18
2017-07-15T01:53:18.596Z,1016.19
2017-07-15T01:54:27.860Z,1016.22
2017-07-15T01:55:36.505Z,1016.19
2017-07-15T01:56:45.463Z,1016.18
2017-07-15T01:57:55.065Z,1016.2
2017-07-15T01:59:03.694Z,1016.16
2017-07-15T02:00:12.648Z,1016.22
2017-07-15T02:01:21.601Z,1016.16
2017-07-15T02:02:30.869Z,1016.21
2017-07-15T02:03:40.458Z,1016.17
2017-07-15T02:04:49.725Z,1016.17
2017-07-15T02:05:58.361Z,1016.18
2017-07-15T02:07:07.938Z,1016.2
2017-07-15T02:08:16.970Z,1016.2
2017-07-15T02:09:26.246Z,1016.21
2017-07-15T02:10:35.224Z,1016.21
2017-07-15T02:11:44.174Z,1016.23
2017-07-15T02:12:53.438Z,1016.24
2017-07-15T02:14:02.712Z,1016.21
2017-07-15T02:15:11.980Z,1016.24
2017-07-15T02:16:20.930Z,1016.21
2017-07-15T02:17:29.885Z,1016.24
2017-07-15T02:18:38.838Z,1016.21
2017-07-15T02:19:48.124Z,1016.24
2017-07-15T02:20:56.771Z,1016.21
2017-07-15T02:22:05.415Z,1016.22
2017-07-15T02:23:14.367Z,1016.25
2017-07-15T02:24:23.320Z,1016.21
2017-07-15T02:25:31.973Z,1016.23
2017-07-15T02:26:41.259Z,1016.27
2017-07-15T02:27:50.226Z,1016.23
2017-07-15T02:28:58.861Z,1016.2
2017-07-15T02:30:07.511Z,1016.2
2017-07-15T02:31:16.458Z,1016.23
2017-07-15T02:32:25.416Z,1016.19
2017-07-15T02:33:34.371Z,1016.23
2017-07-15T02:34:43.324Z,1016.21
2017-07-15T02:35:52.285Z,1016.25
2017-07-15T02:37:00.928Z,1016.25
2017-07-15T02:38:09.935Z,1016.24
2017-07-15T02:39:19.192Z,1016.22
2017-07-15T02:40:28.455Z,1016.26
2017-07-15T02:41:37.729Z,1016.27
2017-07-15T02:42:46.367Z,1016.26
2017-07-15T02:43:55.637Z,1016.2
2017-07-15T02:45:04.592Z,1016.25
2017-07-15T02:46:13.546Z,1016.3
2017-07-15T02:47:22.815Z,1016.3
2017-07-15T02:48:32.415Z,1016.3
2017-07-15T02:49:41.371Z,1016.3
2017-07-15T02:50:50.335Z,1016.31
2017-07-15T02:51:59.613Z,1016.32
2017-07-15T02:53:08.610Z,1016.33
2017-07-15T02:54:17.569Z,1016.33
2017-07-15T02:55:27.146Z,1016.32
2017-07-15T02:56:35.792Z,1016.4
2017-07-15T02:57:44.444Z,1016.39
2017-07-15T02:58:53.722Z,1016.39
2017-07-15T03:00:02.356Z,1016.41
2017-07-15T03:01:11.622Z,1016.42
2017-07-15T03:02:20.576Z,1016.43
2017-07-15T03:03:29.852Z,1016.43
2017-07-15T03:04:38.819Z,1016.44
2017-07-15T03:05:47.766Z,1016.45
2017-07-15T03:06:57.350Z,1016.44
2017-07-15T03:08:06.313Z,1016.42
2017-07-15T03:09:15.579Z,1016.43
2017-07-15T03:10:24.212Z,1016.43
2017-07-15T03:11:34.117Z,1016.41
2017-07-15T03:12:42.762Z,1016.39
2017-07-15T03:13:51.397Z,1016.44
2017-07-15T03:15:00.989Z,1016.45
2017-07-15T03:16:10.271Z,1016.45
2017-07-15T03:17:19.224Z,1016.47
2017-07-15T03:18:28.817Z,1016.52
2017-07-15T03:19:37.779Z,1016.53
2017-07-15T03:20:47.047Z,1016.53
2017-07-15T03:21:55.706Z,1016.54
2017-07-15T03:23:04.660Z,1016.55
2017-07-15T03:24:13.620Z,1016.56
2017-07-15T03:25:22.893Z,1016.53
2017-07-15T03:26:32.480Z,1016.54
2017-07-15T03:27:41.813Z,1016.53
2017-07-15T03:28:51.075Z,1016.53
2017-07-15T03:30:00.350Z,1016.55
2017-07-15T03:31:09.298Z,1016.56
2017-07-15T03:32:18.291Z,1016.6
2017-07-15T03:33:27.892Z,1016.63
2017-07-15T03:34:37.173Z,1016.62
2017-07-15T03:35:45.808Z,1016.67
2017-07-15T03:36:54.767Z,1016.69
2017-07-15T03:38:03.408Z,1016.68
2017-07-15T03:39:12.367Z,1016.64
2017-07-15T03:40:21.643Z,1016.65
2017-07-15T03:41:30.590Z,1016.62
2017-07-15T03:42:39.553Z,1016.66
2017-07-15T03:43:48.182Z,1016.65
2017-07-15T03:44:57.125Z,1016.67
2017-07-15T03:46:06.102Z,1016.68
2017-07-15T03:47:15.057Z,1016.75
2017-07-15T03:48:23.696Z,1016.73
2017-07-15T03:49:32.970Z,1016.78
2017-07-15T03:50:42.262Z,1016.83
2017-07-15T03:51:50.911Z,1016.81
2017-07-15T03:53:00.184Z,1016.81
2017-07-15T03:54:08.825Z,1016.87
2017-07-15T03:55:17.459Z,1016.83
2017-07-15T03:56:26.734Z,1016.85
2017-07-15T03:57:35.692Z,1016.89
2017-07-15T03:58:44.654Z,1016.9
2017-07-15T03:59:53.364Z,1016.94
2017-07-15T04:01:02.006Z,1016.92
2017-07-15T04:02:10.959Z,1016.91
2017-07-15T04:03:19.906Z,1016.91
2017-07-15T04:04:28.539Z,1016.91
2017-07-15T04:05:37.494Z,1016.91
2017-07-15T04:06:46.445Z,1016.95
2017-07-15T04:07:55.095Z,1016.96
2017-07-15T04:09:04.115Z,1016.98
2017-07-15T04:10:13.068Z,1016.99
2017-07-15T04:11:22.655Z,1016.96
2017-07-15T04:12:31.611Z,1017.01
2017-07-15T04:13:40.257Z,1017
2017-07-15T04:14:49.843Z,1017.01
2017-07-15T04:15:58.486Z,1017.02
2017-07-15T04:17:07.448Z,1017.05
2017-07-15T04:18:16.730Z,1017.07
2017-07-15T04:19:26.024Z,1017.07
2017-07-15T04:20:35.616Z,1017.06
2017-07-15T04:21:44.567Z,1017.07
2017-07-15T04:22:53.523Z,1017.08
2017-07-15T04:24:02.797Z,1017.13
2017-07-15T04:25:12.072Z,1017.16
2017-07-15T04:26:21.036Z,1017.19
2017-07-15T04:27:29.675Z,1017.2
2017-07-15T04:28:38.629Z,1017.22
2017-07-15T04:29:47.592Z,1017.18
2017-07-15T04:30:56.232Z,1017.2
2017-07-15T04:32:05.811Z,1017.23
2017-07-15T04:33:14.451Z,1017.2
2017-07-15T04:34:23.720Z,1017.2
2017-07-15T04:35:32.983Z,1017.19
2017-07-15T04:36:42.292Z,1017.21
2017-07-15T04:37:51.246Z,1017.24
2017-07-15T04:39:00.529Z,1017.23
2017-07-15T04:40:09.493Z,1017.23
2017-07-15T04:41:18.196Z,1017.22
2017-07-15T04:42:27.156Z,1017.25
2017-07-15T04:43:36.433Z,1017.24
2017-07-15T04:44:45.392Z,1017.25
2017-07-15T04:45:54.660Z,1017.19
2017-07-15T04:47:04.014Z,1017.25
2017-07-15T04:48:13.605Z,1017.25
2017-07-15T04:49:23.498Z,1017.24
2017-07-15T04:50:32.451Z,1017.28
2017-07-15T04:51:41.097Z,1017.3
2017-07-15T04:52:49.741Z,1017.33
2017-07-15T04:53:58.705Z,1017.34
2017-07-15T04:55:08.291Z,1017.37
2017-07-15T04:56:17.246Z,1017.38
2017-07-15T04:57:26.832Z,1017.36
2017-07-15T04:58:36.100Z,1017.38
2017-07-15T04:59:45.680Z,1017.37
2017-07-15T05:00:54.340Z,1017.38
2017-07-15T05:02:03.294Z,1017.39
2017-07-15T05:03:12.599Z,1017.39
2017-07-15T05:04:21.604Z,1017.4
2017-07-15T05:05:30.245Z,1017.42
2017-07-15T05:06:39.293Z,1017.45
2017-07-15T05:07:48.543Z,1017.47
2017-07-15T05:08:57.807Z,1017.47
2017-07-15T05:10:07.075Z,1017.46
2017-07-15T05:11:16.042Z,1017.44
2017-07-15T05:12:25.311Z,1017.45
2017-07-15T05:13:34.270Z,1017.44
2017-07-15T05:14:43.858Z,1017.43
2017-07-15T05:15:53.123Z,1017.36
2017-07-15T05:17:02.078Z,1017.41
2017-07-15T05:18:11.030Z,1017.36
2017-07-15T05:19:19.987Z,1017.39
2017-07-15T05:20:29.253Z,1017.38
2017-07-15T05:21:37.893Z,1017.37
2017-07-15T05:22:47.194Z,1017.41
2017-07-15T05:23:56.144Z,1017.4
2017-07-15T05:25:05.107Z,1017.42
2017-07-15T05:26:14.702Z,1017.47
2017-07-15T05:27:23.648Z,1017.51
2017-07-15T05:28:32.304Z,1017.49
2017-07-15T05:29:41.581Z,1017.49
2017-07-15T05:30:50.545Z,1017.51
2017-07-15T05:31:59.821Z,1017.47
2017-07-15T05:33:08.839Z,1017.45
2017-07-15T05:34:18.110Z,1017.44
2017-07-15T05:35:27.716Z,1017.47
2017-07-15T05:36:36.669Z,1017.44
2017-07-15T05:37:45.311Z,1017.45
2017-07-15T05:38:54.593Z,1017.45
2017-07-15T05:40:03.233Z,1017.44
2017-07-15T05:41:12.190Z,1017.47
2017-07-15T05:42:21.464Z,1017.49
2017-07-15T05:43:30.442Z,1017.49
2017-07-15T05:44:39.397Z,1017.5
2017-07-15T05:45:48.036Z,1017.49
2017-07-15T05:46:57.311Z,1017.54
2017-07-15T05:48:06.274Z,1017.54
2017-07-15T05:49:15.229Z,1017.52
2017-07-15T05:50:24.189Z,1017.52
2017-07-15T05:51:33.146Z,1017.55
2017-07-15T05:52:42.107Z,1017.57
2017-07-15T05:53:51.063Z,1017.54
2017-07-15T05:55:00.327Z,1017.55
2017-07-15T05:56:09.901Z,1017.54
2017-07-15T05:57:18.911Z,1017.54
2017-07-15T05:58:27.868Z,1017.55
2017-07-15T05:59:36.512Z,1017.51
2017-07-15T06:00:45.148Z,1017.47
2017-07-15T06:01:54.756Z,1017.47
2017-07-15T06:03:03.720Z,1017.5
2017-07-15T06:04:12.669Z,1017.47
2017-07-15T06:05:21.935Z,1017.53
2017-07-15T06:06:30.600Z,1017.5
2017-07-15T06:07:40.218Z,1017.51
2017-07-15T06:08:48.855Z,1017.55
2017-07-15T06:09:58.756Z,1017.54
2017-07-15T06:11:07.392Z,1017.55
2017-07-15T06:12:16.661Z,1017.55
2017-07-15T06:13:25.937Z,1017.53
2017-07-15T06:14:35.211Z,1017.56
2017-07-15T06:15:44.798Z,1017.58
2017-07-15T06:16:53.758Z,1017.58
2017-07-15T06:18:02.406Z,1017.56
2017-07-15T06:19:11.375Z,1017.58
2017-07-15T06:20:20.655Z,1017.61
2017-07-15T06:21:29.627Z,1017.6
2017-07-15T06:22:39.523Z,1017.59
2017-07-15T06:23:48.173Z,1017.69
2017-07-15T06:24:57.132Z,1017.73
2017-07-15T06:26:06.123Z,1017.73
2017-07-15T06:27:15.750Z,1017.74
2017-07-15T06:28:25.100Z,1017.74
2017-07-15T06:29:34.749Z,1017.74
2017-07-15T06:30:43.708Z,1017.74
2017-07-15T06:31:52.390Z,1017.74
2017-07-15T06:33:02.767Z,1017.74
2017-07-15T06:34:11.405Z,1017.8
2017-07-15T06:35:20.689Z,1017.84
2017-07-15T06:36:30.366Z,1017.85
2017-07-15T06:37:39.807Z,1017.85
2017-07-15T06:38:49.167Z,1017.87
2017-07-15T06:39:59.073Z,1017.85
2017-07-15T06:41:07.763Z,1017.87
2017-07-15T06:42:16.769Z,1017.88
2017-07-15T06:43:26.445Z,1017.9
2017-07-15T06:44:35.725Z,1017.92
2017-07-15T06:45:45.339Z,1017.92
2017-07-15T06:46:54.923Z,1017.93
2017-07-15T06:48:03.563Z,1017.98
2017-07-15T06:49:13.144Z,1017.95
2017-07-15T06:50:22.412Z,1017.97
2017-07-15T06:51:31.675Z,1017.96
2017-07-15T06:52:40.635Z,1018.03
2017-07-15T06:53:49.905Z,1018.01
2017-07-15T06:54:58.547Z,1017.98
2017-07-15T06:56:07.213Z,1018.01
2017-07-15T06:57:16.187Z,1018.03
2017-07-15T06:58:25.766Z,1018.06
2017-07-15T06:59:34.737Z,1018.06
2017-07-15T07:00:43.706Z,1018.03
2017-07-15T07:01:52.973Z,1018.02
2017-07-15T07:03:01.941Z,1018
2017-07-15T07:04:11.241Z,1018.08
2017-07-15T07:05:19.885Z,1018.08
2017-07-15T07:06:28.842Z,1018.1
2017-07-15T07:07:37.804Z,1018.13
2017-07-15T07:08:47.461Z,1018.11
2017-07-15T07:09:56.415Z,1018.12
2017-07-15T07:11:05.392Z,1018.11
2017-07-15T07:12:14.034Z,1018.14
2017-07-15T07:13:23.306Z,1018.12
2017-07-15T07:14:32.567Z,1018.15
2017-07-15T07:15:41.521Z,1018.13
2017-07-15T07:16:51.138Z,1018.15
2017-07-15T07:18:00.416Z,1018.16
2017-07-15T07:19:09.064Z,1018.18
2017-07-15T07:20:17.700Z,1018.18
2017-07-15T07:21:26.980Z,1018.22
2017-07-15T07:22:35.951Z,1018.24
2017-07-15T07:23:44.592Z,1018.3
2017-07-15T07:24:53.231Z,1018.3
2017-07-15T07:26:01.891Z,1018.29
2017-07-15T07:27:10.537Z,1018.31
2017-07-15T07:28:19.182Z,1018.34
2017-07-15T07:29:28.151Z,1018.34
2017-07-15T07:30:37.425Z,1018.36
2017-07-15T07:31:46.394Z,1018.37
2017-07-15T07:32:55.373Z,1018.38
2017-07-15T07:34:04.651Z,1018.37
2017-07-15T07:35:13.937Z,1018.38
2017-07-15T07:36:23.527Z,1018.38
2017-07-15T07:37:33.201Z,1018.42
2017-07-15T07:38:41.855Z,1018.4
2017-07-15T07:39:51.132Z,1018.47
2017-07-15T07:41:00.248Z,1018.39
2017-07-15T07:42:09.857Z,1018.45
2017-07-15T07:43:18.810Z,1018.44
2017-07-15T07:44:28.072Z,1018.46
2017-07-15T07:45:37.070Z,1018.43
2017-07-15T07:46:46.340Z,1018.43
2017-07-15T07:47:54.987Z,1018.44
2017-07-15T07:49:03.947Z,1018.45
2017-07-15T07:50:12.600Z,1018.42
2017-07-15T07:51:21.638Z,1018.4
2017-07-15T07:52:30.597Z,1018.38
2017-07-15T07:53:39.880Z,1018.42
2017-07-15T07:54:48.938Z,1018.42
2017-07-15T07:55:57.892Z,1018.45
2017-07-15T07:57:06.568Z,1018.39
2017-07-15T07:58:15.841Z,1018.39
2017-07-15T07:59:24.499Z,1018.38
2017-07-15T08:00:33.776Z,1018.4
2017-07-15T08:01:42.780Z,1018.39
2017-07-15T08:02:51.440Z,1018.37
2017-07-15T08:04:00.738Z,1018.34
2017-07-15T08:05:09.693Z,1018.32
2017-07-15T08:06:18.659Z,1018.35
2017-07-15T08:07:27.327Z,1018.33
2017-07-15T08:08:36.300Z,1018.3
2017-07-15T08:09:44.978Z,1018.32
2017-07-15T08:10:54.579Z,1018.27
2017-07-15T08:12:03.231Z,1018.26
2017-07-15T08:13:12.231Z,1018.32
2017-07-15T08:14:21.823Z,1018.37
2017-07-15T08:15:31.119Z,1018.35
2017-07-15T08:16:39.776Z,1018.35
2017-07-15T08:17:48.753Z,1018.26
2017-07-15T08:18:58.677Z,1018.27
2017-07-15T08:20:07.634Z,1018.25
2017-07-15T08:21:16.598Z,1018.28
2017-07-15T08:22:25.582Z,1018.27
2017-07-15T08:23:34.883Z,1018.28
2017-07-15T08:24:43.833Z,1018.26
2017-07-15T08:25:53.133Z,1018.25
2017-07-15T08:27:02.097Z,1018.3
2017-07-15T08:28:10.755Z,1018.31
2017-07-15T08:29:20.049Z,1018.28
2017-07-15T08:30:29.021Z,1018.25
2017-07-15T08:31:38.320Z,1018.25
2017-07-15T08:32:46.977Z,1018.27
2017-07-15T08:33:56.586Z,1018.26
2017-07-15T08:35:05.568Z,1018.25
2017-07-15T08:36:14.848Z,1018.28
2017-07-15T08:37:23.506Z,1018.32
2017-07-15T08:38:32.781Z,1018.31
2017-07-15T08:39:42.062Z,1018.31
2017-07-15T08:40:51.655Z,1018.29
2017-07-15T08:42:00.936Z,1018.32
2017-07-15T08:43:10.219Z,1018.3
2017-07-15T08:44:18.870Z,1018.29
2017-07-15T08:45:28.160Z,1018.27
2017-07-15T08:46:36.805Z,1018.29
2017-07-15T08:47:45.485Z,1018.24
2017-07-15T08:48:54.455Z,1018.3
2017-07-15T08:50:03.192Z,1018.3
2017-07-15T08:51:12.493Z,1018.29
2017-07-15T08:52:21.771Z,1018.28
2017-07-15T08:53:30.745Z,1018.32
2017-07-15T08:54:39.715Z,1018.31
2017-07-15T08:55:49.005Z,1018.35
2017-07-15T08:56:58.660Z,1018.31
2017-07-15T08:58:07.622Z,1018.32
2017-07-15T08:59:16.581Z,1018.31
2017-07-15T09:00:26.183Z,1018.36
2017-07-15T09:01:35.454Z,1018.43
2017-07-15T09:02:44.796Z,1018.43
2017-07-15T09:03:54.101Z,1018.4
2017-07-15T09:05:03.068Z,1018.38
2017-07-15T09:06:12.361Z,1018.38
2017-07-15T09:07:22.017Z,1018.44
2017-07-15T09:08:31.626Z,1018.4
2017-07-15T09:09:40.317Z,1018.36
2017-07-15T09:10:49.290Z,1018.35
2017-07-15T09:11:58.571Z,1018.38
2017-07-15T09:13:07.869Z,1018.44
2017-07-15T09:15:59.178Z,1018.47
2017-07-15T09:17:07.865Z,1018.48
2017-07-15T09:18:16.666Z,1018.45
2017-07-15T09:19:25.645Z,1018.42
2017-07-15T09:20:34.950Z,1018.48
2017-07-15T09:21:44.227Z,1018.5
2017-07-15T09:22:53.513Z,1018.46
2017-07-15T09:24:02.227Z,1018.51
2017-07-15T09:25:11.201Z,1018.49
2017-07-15T09:26:20.489Z,1018.54
2017-07-15T09:27:29.460Z,1018.55
2017-07-15T09:28:38.118Z,1018.5
2017-07-15T09:29:47.718Z,1018.57
2017-07-15T09:30:56.686Z,1018.49
2017-07-15T09:32:05.335Z,1018.5
2017-07-15T09:33:13.982Z,1018.48
2017-07-15T09:34:23.262Z,1018.48
2017-07-15T09:35:31.912Z,1018.48
2017-07-15T09:36:41.193Z,1018.5
2017-07-15T09:37:50.534Z,1018.48
2017-07-15T09:38:59.522Z,1018.44
2017-07-15T09:40:08.484Z,1018.47
2017-07-15T09:41:17.648Z,1018.47
2017-07-15T09:42:26.617Z,1018.46
2017-07-15T09:43:35.892Z,1018.48
2017-07-15T09:44:45.496Z,1018.46
2017-07-15T09:45:54.775Z,1018.42
2017-07-15T09:47:04.513Z,1018.47
2017-07-15T09:48:13.169Z,1018.47
2017-07-15T09:49:21.816Z,1018.47
2017-07-15T09:50:31.091Z,1018.48
2017-07-15T09:51:40.068Z,1018.44
2017-07-15T09:52:49.145Z,1018.45
2017-07-15T09:53:58.112Z,1018.44
2017-07-15T09:55:07.073Z,1018.44
2017-07-15T09:56:16.048Z,1018.43
2017-07-15T09:57:25.043Z,1018.41
2017-07-15T09:58:34.160Z,1018.39
2017-07-15T09:59:43.464Z,1018.42
2017-07-15T10:00:52.140Z,1018.43
2017-07-15T10:02:01.106Z,1018.41
2017-07-15T10:03:09.757Z,1018.37
2017-07-15T10:04:19.699Z,1018.41
2017-07-15T10:05:28.658Z,1018.41
2017-07-15T10:06:37.321Z,1018.45
2017-07-15T10:07:45.981Z,1018.42
2017-07-15T10:08:55.278Z,1018.41
2017-07-15T10:10:04.273Z,1018.42
2017-07-15T10:11:13.248Z,1018.4
2017-07-15T10:12:22.215Z,1018.37
2017-07-15T10:13:31.201Z,1018.44
2017-07-15T10:14:40.169Z,1018.38
2017-07-15T10:15:49.457Z,1018.38
2017-07-15T10:16:58.430Z,1018.43
2017-07-15T10:18:08.045Z,1018.46
2017-07-15T10:19:17.654Z,1018.52
2017-07-15T10:20:26.359Z,1018.46
2017-07-15T10:21:35.003Z,1018.43
2017-07-15T10:22:43.982Z,1018.46
2017-07-15T10:23:53.257Z,1018.47
2017-07-15T10:25:02.222Z,1018.44
2017-07-15T10:26:10.936Z,1018.48
2017-07-15T10:27:20.369Z,1018.45
2017-07-15T10:28:29.343Z,1018.53
2017-07-15T10:29:38.014Z,1018.46
2017-07-15T10:30:46.661Z,1018.5
2017-07-15T10:31:55.946Z,1018.47
2017-07-15T10:33:05.483Z,1018.47
2017-07-15T10:34:14.456Z,1018.5
2017-07-15T10:35:23.422Z,1018.53
2017-07-15T10:36:32.711Z,1018.58
2017-07-15T10:37:42.033Z,1018.57
2017-07-15T10:38:51.329Z,1018.53
2017-07-15T10:40:00.286Z,1018.52
2017-07-15T10:41:09.571Z,1018.47
2017-07-15T10:42:18.233Z,1018.45
2017-07-15T10:43:26.873Z,1018.49
2017-07-15T10:44:36.184Z,1018.55
2017-07-15T10:45:44.882Z,1018.43
2017-07-15T10:46:54.172Z,1018.46
2017-07-15T10:48:03.144Z,1018.44
2017-07-15T10:49:12.116Z,1018.35
2017-07-15T10:50:21.894Z,1018.41
2017-07-15T10:51:30.863Z,1018.37
2017-07-15T10:52:39.821Z,1018.46
2017-07-15T10:53:48.490Z,1018.46
2017-07-15T10:54:58.095Z,1018.5
2017-07-15T10:56:06.890Z,1018.42
2017-07-15T10:57:15.544Z,1018.42
2017-07-15T10:58:24.522Z,1018.42
2017-07-15T10:59:33.241Z,1018.4
2017-07-15T11:00:42.216Z,1018.37
2017-07-15T11:01:51.697Z,1018.43
2017-07-15T11:03:00.356Z,1018.41
2017-07-15T11:04:09.652Z,1018.4
2017-07-15T11:05:19.268Z,1018.39
2017-07-15T11:06:28.229Z,1018.4
2017-07-15T11:07:37.649Z,1018.44
2017-07-15T11:08:46.601Z,1018.42
2017-07-15T11:09:55.554Z,1018.38
2017-07-15T11:11:04.524Z,1018.4
2017-07-15T11:12:13.502Z,1018.35
2017-07-15T11:13:22.475Z,1018.36
2017-07-15T11:14:31.421Z,1018.36
2017-07-15T11:15:40.380Z,1018.36
2017-07-15T11:16:49.345Z,1018.43
2017-07-15T11:17:59.250Z,1018.39
2017-07-15T11:19:09.042Z,1018.39
2017-07-15T11:20:18.322Z,1018.35
2017-07-15T11:21:27.277Z,1018.32
2017-07-15T11:22:36.233Z,1018.32
2017-07-15T11:23:45.196Z,1018.34
2017-07-15T11:24:54.306Z,1018.3
2017-07-15T11:26:03.636Z,1018.3
2017-07-15T11:27:12.292Z,1018.24
2017-07-15T11:28:21.563Z,1018.29
2017-07-15T11:29:30.844Z,1018.31
2017-07-15T11:30:40.808Z,1018.3
2017-07-15T11:31:49.792Z,1018.3
2017-07-15T11:32:59.057Z,1018.3
2017-07-15T11:34:08.021Z,1018.32
2017-07-15T11:35:17.297Z,1018.32
2017-07-15T11:36:27.355Z,1018.35
2017-07-15T11:37:36.007Z,1018.34
2017-07-15T11:38:44.971Z,1018.32
2017-07-15T11:39:54.255Z,1018.34
2017-07-15T11:41:03.528Z,1018.35
2017-07-15T11:42:12.496Z,1018.4
2017-07-15T11:43:21.138Z,1018.43
2017-07-15T11:44:30.098Z,1018.46
2017-07-15T11:45:39.049Z,1018.48
2017-07-15T11:46:48.034Z,1018.45
2017-07-15T11:47:56.837Z,1018.48
2017-07-15T11:49:05.497Z,1018.48
2017-07-15T11:50:14.452Z,1018.46
2017-07-15T11:51:23.739Z,1018.46
2017-07-15T11:52:32.402Z,1018.51
2017-07-15T11:53:41.676Z,1018.45
2017-07-15T11:54:50.643Z,1018.46
2017-07-15T11:55:59.939Z,1018.53
2017-07-15T11:57:08.913Z,1018.5
2017-07-15T11:58:18.217Z,1018.55
2017-07-15T11:59:27.371Z,1018.55
2017-07-15T12:00:36.018Z,1018.56
2017-07-15T12:01:45.284Z,1018.52
2017-07-15T12:02:54.242Z,1018.57
2017-07-15T12:04:03.201Z,1018.53
2017-07-15T12:05:11.914Z,1018.45
2017-07-15T12:06:20.567Z,1018.48
2017-07-15T12:07:29.539Z,1018.47
2017-07-15T12:08:38.494Z,1018.49
2017-07-15T12:09:47.780Z,1018.55
2017-07-15T12:10:56.579Z,1018.53
2017-07-15T12:12:05.850Z,1018.54
2017-07-15T12:13:15.119Z,1018.51
2017-07-15T12:14:24.088Z,1018.55
2017-07-15T12:15:33.046Z,1018.54
2017-07-15T12:16:42.061Z,1018.56
2017-07-15T12:17:51.018Z,1018.56
2017-07-15T12:19:00.311Z,1018.57
2017-07-15T12:20:08.952Z,1018.65
2017-07-15T12:21:17.595Z,1018.53
2017-07-15T12:22:26.338Z,1018.54
2017-07-15T12:23:35.305Z,1018.52
2017-07-15T12:24:44.576Z,1018.49
2017-07-15T12:25:53.851Z,1018.45
2017-07-15T12:27:02.510Z,1018.52
2017-07-15T12:28:12.616Z,1018.5
2017-07-15T12:29:21.262Z,1018.51
2017-07-15T12:30:30.226Z,1018.5
2017-07-15T12:31:39.521Z,1018.53
2017-07-15T12:32:49.114Z,1018.52
2017-07-15T12:33:58.226Z,1018.49
2017-07-15T12:35:06.874Z,1018.46
2017-07-15T12:36:15.856Z,1018.5
2017-07-15T12:37:24.513Z,1018.48
2017-07-15T12:38:33.481Z,1018.42
2017-07-15T12:39:43.397Z,1018.42
2017-07-15T12:40:52.347Z,1018.44
2017-07-15T12:42:01.625Z,1018.44
2017-07-15T12:43:10.302Z,1018.46
2017-07-15T12:44:19.225Z,1018.49
2017-07-15T12:45:28.543Z,1018.49
2017-07-15T12:46:37.507Z,1018.49
2017-07-15T12:47:46.157Z,1018.49
2017-07-15T12:48:54.829Z,1018.43
2017-07-15T12:50:04.133Z,1018.46
2017-07-15T12:51:13.316Z,1018.49
2017-07-15T12:52:22.907Z,1018.47
2017-07-15T12:53:31.869Z,1018.46
2017-07-15T12:54:41.453Z,1018.4
2017-07-15T12:55:50.426Z,1018.37
2017-07-15T12:56:59.411Z,1018.36
2017-07-15T12:58:08.376Z,1018.39
2017-07-15T12:59:17.330Z,1018.39
2017-07-15T13:00:26.310Z,1018.38
2017-07-15T13:01:35.273Z,1018.42
2017-07-15T13:02:44.535Z,1018.4
2017-07-15T13:03:53.802Z,1018.37
2017-07-15T13:05:03.074Z,1018.4
2017-07-15T13:06:11.778Z,1018.38
2017-07-15T13:07:21.359Z,1018.39
2017-07-15T13:08:30.672Z,1018.33
2017-07-15T13:09:39.639Z,1018.33
2017-07-15T13:10:48.606Z,1018.3
2017-07-15T13:11:57.573Z,1018.34
2017-07-15T13:13:06.537Z,1018.31
2017-07-15T13:14:15.996Z,1018.31
2017-07-15T13:15:25.290Z,1018.31
2017-07-15T13:16:34.572Z,1018.28
2017-07-15T13:17:43.536Z,1018.29
2017-07-15T13:18:52.203Z,1018.3
2017-07-15T13:20:02.285Z,1018.3
2017-07-15T13:21:11.582Z,1018.27
2017-07-15T13:22:20.550Z,1018.37
2017-07-15T13:23:29.521Z,1018.38
2017-07-15T13:24:38.476Z,1018.37
2017-07-15T13:25:47.498Z,1018.32
2017-07-15T13:26:56.786Z,1018.32
2017-07-15T13:28:05.762Z,1018.36
2017-07-15T13:29:15.353Z,1018.35
2017-07-15T13:30:24.318Z,1018.38
2017-07-15T13:31:33.643Z,1018.39
2017-07-15T13:32:42.297Z,1018.4
2017-07-15T13:33:51.567Z,1018.4
2017-07-15T13:35:00.254Z,1018.41
2017-07-15T13:36:09.209Z,1018.37
2017-07-15T13:37:18.954Z,1018.34
2017-07-15T13:38:27.925Z,1018.34
2017-07-15T13:39:36.884Z,1018.35
2017-07-15T13:40:46.188Z,1018.41
2017-07-15T13:41:55.476Z,1018.36
2017-07-15T13:43:04.511Z,1018.41
2017-07-15T13:44:13.485Z,1018.4
2017-07-15T13:45:22.142Z,1018.38
2017-07-15T13:46:31.135Z,1018.4
2017-07-15T13:47:40.121Z,1018.35
2017-07-15T13:48:49.240Z,1018.31
2017-07-15T13:49:58.511Z,1018.35
2017-07-15T13:51:07.884Z,1018.36
2017-07-15T13:52:16.531Z,1018.39
2017-07-15T13:53:25.498Z,1018.39
2017-07-15T13:54:34.293Z,1018.36
2017-07-15T13:55:43.266Z,1018.37
2017-07-15T13:56:52.244Z,1018.42
2017-07-15T13:58:01.205Z,1018.44
2017-07-15T13:59:09.854Z,1018.49
2017-07-15T14:00:18.863Z,1018.44